Airfield :
LOGIN :

Register | Disclaimer

   EN    FR    IT 

 










Legend :    VFR   Marginal VFR   IFR   Intensive IFR   Very Intensive IFR
Visi :
Ceiling :
>= 8 km
>= 3000ft
5 to 8 km
1000 to 3000 ft
1500m to 5 km
500 to 1000 ft
800 to 1500m
200 to 500 ft
< 800m
< 200 ft
Symbols :   Thunderstorms  Fog  Heavy snow  Heavy precipitations  Wind > 20 kt
SIGMETs :     Misc.  Thunderstorms  Icing  Turbulence  Mountain Waves  Volcanic Ashes







- Airport Elevation : 138 ft
- IATA code : BIO


LEBB - Bilbao

CURRENT METAR :
  • 182300Z AUTO VRB02KT 9999 BKN034/// 21/19 Q1020

EXPIRED METARs :
  • 182230Z VRB01KT 9999 BKN035 21/19 Q1020 NOSIG
  • 182200Z 12003KT 080V150 9999 BKN035 21/19 Q1020 NOSIG
  • 182130Z 13003KT 060V150 9999 BKN035 21/19 Q1020 NOSIG
  • 182100Z VRB02KT 9999 BKN035 21/19 Q1020 NOSIG
  • 182030Z 15001KT 9999 BKN035 22/19 Q1020 NOSIG

TAF TAF LEBB
Valid from the 19 at 00:00 until the 20 at 00:00 UTC


182300Z 1900/1924 10004KT 9999 FEW015 BKN025 TX27/1914Z TN17/1906Z
TEMPO 1903/1907 BKN014
PROB40
TEMPO 1902/1907 3000 BR BKN009
TEMPO 1911/1917 34010KT
No reported NOTAMs for that airfield.



MET'MAP, your aeronautical weather chart ! - Copyright ORBIFLY December 2007 - Disclaimer

ORBIFLY MET'MAP TEAM :

Programming & Development : Alexandra Zaïnal
Concept & Development : Baudouin d'Aumeries
Co-Development & Prog : Marc-Olivier Méhu
Technical & hardware support : Manuel Goepfert

Contact : metmap@orbifly.com




SOURCES & CREDITS :

   NOAA